Dakar, Sénégal

01:40 GMT le 01 novembre 2014 (GMT +0000)
Ngor Almadies | Change Station
CLOSE
Current Station
Stations météorologiques personnelles
Location: Dakar, DAKAR
Altitude: 46 ft
Stations météo à proximité

Alt. 46 ft 14.74 °N, 17.51 °W | Updated 2 seconds ago

Scattered Clouds
Nuages épars
79.2 ° F
Paraît 83 ° F
N
5.0
Vent Variable Vent de NNO
Gusts 8.0 mph

Aujourd'hui
Haut(e) -- | Bas -- ° F
--% Risque de précip.
Hier
Haut(e) -- | Bas -- ° F
Precip. -- pouce
7:05 AM 6:41 PM
Premier quartier, 61% visible
Pression 29.89 pouce
Visibilité 6.2 Miles terrestres
Nuages Nuages épars 800 ft
indice de chaleur 83 ° F
Point de rosée 72 ° F
Humidité 80%
Précipitations 0.00 pouce
Profondeur de la couche neigeuse Non disponible.
UV 0 sur 12
Pollen Non disponible.
Qualité de l'air Non disponible.
Flu Activity Non disponible.
METAR GOOY 010130Z 34010KT 9999 SCT008 26/22 Q1012 NOSIG

More Conditions Fewer Conditions

Pression 29.89 pouce
Visibilité 6.2 Miles terrestres
Nuages Nuages épars 800 ft
indice de chaleur 83 ° F
Point de rosée 72 ° F
Humidité 80%
Précipitations 0.00 pouce
Profondeur de la couche neigeuse Non disponible.
UV 0 sur 12
Pollen Non disponible.
Qualité de l'air Non disponible.
Flu Activity Non disponible.
METAR GOOY 010130Z 34010KT 9999 SCT008 26/22 Q1012 NOSIG

More Conditions Fewer Conditions

10-Day Weather Forecast

Almanac

Astronomie

Nov. 01, 2014 Lever Coucher
Temps réel
Crépuscule civil
Crépuscule nautique
Crépuscule astronomique
Lune
Durée de lumière visible
Longueur du jour
Tomorrow will be .
, % of the Moon is Illuminated

Extrêmes aujourd'hui

Country Highs Country Lows

Community

WunderPhotos

Upload Photos

1,766,810 Photos téléchargées !

WunderBlogs® & News

Nearby

Qualité de l'air

  Qualité de l'air Indice de la qualité de l'air Polluant
Not available.

Épaisseur de neige

Station Depth Altitude

Activité sismique

Ville Distance Mag. Time & Date
Minimum magnitude displayed is 2.5.

Températures des eaux côtières

Lieu Température

Stations météo à proximité